KEFK

Northeast Kingdom International Airport

Newport, Vermont, USA
METAR KEFK 170335Z AUTO 16005KT 10SM SCT048 SCT095 03/00 A2990 RMK AO2 T00271004
Observed Flight Rules
Oct-17 @ 03:35 UTC (18 minutes ago) Visual Flight Rules
Wind Visibility Clouds
160° at 5 knots 10 miles
  • Scattered at 4,800' AGL
  • Scattered at 9,500' AGL
Temperatures Readings
Current 3°C / 37°F
Dewpoint -0°C / 32°F
Humidity 81%
Altimeter 29.9" Hg
Pressure 1013 hPa
Elevation 284
METAR KEFK 170335Z AUTO 16005KT 10SM SCT048 SCT095 03/00 A2990 RMK AO2 T00271004
Observed Flight Rules
Oct-17 @ 03:35 UTC
(18 minutes ago)
VFR
Wind Visibility
160° at 5 knots 10 miles
Clouds
  • Scattered at 4,800' AGL
  • Scattered at 9,500' AGL
Temperature Dewpoint
3°C / 37°F -0°C / 32°F
Humidity Altimeter Pressure
81% 29.9" Hg 1013 hPa